createdAt,value
2018-01-16T00:00:16.745Z,99453.75
2018-01-16T00:02:44.253Z,99450.80
2018-01-16T00:05:11.800Z,99428.87
2018-01-16T00:07:39.350Z,99428.95
2018-01-16T00:10:06.856Z,99438.59
2018-01-16T00:12:34.364Z,99400.34
2018-01-16T00:15:01.872Z,99408.62
2018-01-16T00:17:29.380Z,99411.40
2018-01-16T00:19:56.892Z,99395.22
2018-01-16T00:22:36.289Z,99396.45
2018-01-16T00:25:03.881Z,99388.09
2018-01-16T00:27:31.387Z,99388.84
2018-01-16T00:29:58.901Z,99377.44
2018-01-16T00:32:26.417Z,99357.21
2018-01-16T00:34:53.925Z,99350.52
2018-01-16T00:37:21.476Z,99353.87
2018-01-16T00:39:49.032Z,99340.20
2018-01-16T00:42:16.554Z,99343.42
2018-01-16T00:44:44.064Z,99330.92
2018-01-16T00:47:11.592Z,99328.51
2018-01-16T00:49:39.104Z,99318.30
2018-01-16T00:52:06.613Z,99317.88
2018-01-16T00:54:34.132Z,99319.14
2018-01-16T00:57:01.643Z,99302.33
2018-01-16T00:59:29.196Z,99301.58
2018-01-16T01:01:56.700Z,99294.54
2018-01-16T01:04:24.211Z,99291.98
2018-01-16T01:06:51.732Z,99275.81
2018-01-16T01:09:19.341Z,99285.55
2018-01-16T01:11:46.852Z,99267.72
2018-01-16T01:14:14.377Z,99265.16
2018-01-16T01:16:41.890Z,99266.58
2018-01-16T01:19:09.400Z,99256.98
2018-01-16T01:21:36.937Z,99251.50
2018-01-16T01:24:04.455Z,99242.34
2018-01-16T01:26:31.980Z,99245.98
2018-01-16T01:28:59.490Z,99228.12
2018-01-16T01:31:27.029Z,99228.50
2018-01-16T01:33:54.538Z,99203.92
2018-01-16T01:36:22.092Z,99217.94
2018-01-16T01:38:49.652Z,99196.83
2018-01-16T01:41:17.167Z,99202.98
2018-01-16T01:43:44.676Z,99209.00
2018-01-16T01:46:12.205Z,99167.29
2018-01-16T01:48:39.729Z,99186.89
2018-01-16T01:51:07.243Z,99181.70
2018-01-16T01:53:34.747Z,99186.41
2018-01-16T01:56:02.367Z,99178.02
2018-01-16T01:58:29.919Z,99166.16
2018-01-16T02:00:57.494Z,99152.89
2018-01-16T02:03:25.004Z,99145.48
2018-01-16T02:05:52.520Z,99139.77
2018-01-16T02:08:20.037Z,99128.86
2018-01-16T02:10:47.587Z,99122.91
2018-01-16T02:13:15.088Z,99125.97
2018-01-16T02:15:42.617Z,99116.02
2018-01-16T02:18:10.134Z,99113.98
2018-01-16T02:20:37.665Z,99104.38
2018-01-16T02:23:05.211Z,99094.73
2018-01-16T02:25:32.716Z,99090.22
2018-01-16T02:28:00.244Z,99083.37
2018-01-16T02:30:27.756Z,99078.55
2018-01-16T02:32:55.288Z,99064.36
2018-01-16T02:35:22.808Z,99074.64
2018-01-16T02:37:50.313Z,99066.91
2018-01-16T02:40:17.835Z,99057.33
2018-01-16T02:42:45.401Z,99038.15
2018-01-16T02:45:12.919Z,99054.33
2018-01-16T02:47:40.436Z,99041.44
2018-01-16T02:50:07.953Z,99044.01
2018-01-16T02:52:35.484Z,99039.74
2018-01-16T02:55:02.995Z,99038.85
2018-01-16T02:57:30.512Z,99030.75
2018-01-16T02:59:58.040Z,99027.73
2018-01-16T03:02:25.555Z,99014.66
2018-01-16T03:04:53.062Z,99011.53
2018-01-16T03:07:20.588Z,99019.63
2018-01-16T03:09:48.135Z,99008.19
2018-01-16T03:12:15.641Z,99004.66
2018-01-16T03:14:43.152Z,99014.34
2018-01-16T03:17:10.657Z,99000.61
2018-01-16T03:19:38.165Z,98984.89
2018-01-16T03:22:05.667Z,98991.48
2018-01-16T03:24:33.292Z,98985.65
2018-01-16T03:27:00.801Z,98979.73
2018-01-16T03:29:28.308Z,98980.88
2018-01-16T03:31:55.891Z,98971.37
2018-01-16T03:34:23.469Z,98971.78
2018-01-16T03:36:50.978Z,98957.52
2018-01-16T03:39:18.544Z,98955.20
2018-01-16T03:41:46.112Z,98954.88
2018-01-16T03:44:13.624Z,98955.66
2018-01-16T03:46:41.135Z,98949.73
2018-01-16T03:49:08.641Z,98935.11
2018-01-16T03:51:36.156Z,98944.61
2018-01-16T03:54:03.670Z,98929.09
2018-01-16T03:56:31.189Z,98932.89
2018-01-16T03:58:58.701Z,98937.48
2018-01-16T04:01:26.215Z,98924.70
2018-01-16T04:03:53.725Z,98924.41
2018-01-16T04:06:21.236Z,98914.59
2018-01-16T04:08:48.741Z,98915.35
2018-01-16T04:11:16.252Z,98900.36
2018-01-16T04:13:43.759Z,98890.09
2018-01-16T04:16:11.263Z,98900.52
2018-01-16T04:18:38.756Z,98887.30
2018-01-16T04:21:06.294Z,98889.31
2018-01-16T04:23:33.800Z,98893.09
2018-01-16T04:26:01.390Z,98890.00
2018-01-16T04:28:28.906Z,98881.47
2018-01-16T04:30:56.403Z,98886.92
2018-01-16T04:33:23.908Z,98877.61
2018-01-16T04:35:51.475Z,98872.93
2018-01-16T04:38:19.011Z,98872.28
2018-01-16T04:40:46.515Z,98870.85
2018-01-16T04:43:14.049Z,98860.16
2018-01-16T04:45:41.642Z,98857.09
2018-01-16T04:48:09.148Z,98855.13
2018-01-16T04:50:36.643Z,98854.05
2018-01-16T04:53:04.148Z,98847.75
2018-01-16T04:55:31.662Z,98849.73
2018-01-16T04:57:59.216Z,98856.66
2018-01-16T05:00:26.754Z,98850.80
2018-01-16T05:02:54.269Z,98858.16
2018-01-16T05:05:21.789Z,98851.51
2018-01-16T05:07:49.320Z,98841.70
2018-01-16T05:10:16.832Z,98846.34
2018-01-16T05:12:44.413Z,98848.02
2018-01-16T05:15:11.920Z,98839.41
2018-01-16T05:17:39.528Z,98833.55
2018-01-16T05:20:07.043Z,98846.11
2018-01-16T05:22:34.561Z,98852.14
2018-01-16T05:25:02.109Z,98843.19
2018-01-16T05:27:29.616Z,98836.81
2018-01-16T05:29:57.123Z,98847.70
2018-01-16T05:32:24.637Z,98840.47
2018-01-16T05:34:52.247Z,98834.36
2018-01-16T05:37:19.756Z,98839.30
2018-01-16T05:39:47.288Z,98842.41
2018-01-16T05:42:14.793Z,98842.84
2018-01-16T05:44:42.380Z,98837.39
2018-01-16T05:47:09.880Z,98845.60
2018-01-16T05:49:37.403Z,98838.05
2018-01-16T05:52:04.913Z,98856.46
2018-01-16T05:54:32.437Z,98829.69
2018-01-16T05:56:59.941Z,98841.52
2018-01-16T05:59:27.454Z,98836.53
2018-01-16T06:01:54.954Z,98836.76
2018-01-16T06:04:22.476Z,98832.64
2018-01-16T06:06:49.981Z,98831.36
2018-01-16T06:09:17.504Z,98832.01
2018-01-16T06:11:45.017Z,98836.88
2018-01-16T06:14:12.524Z,98832.70
2018-01-16T06:16:40.033Z,98825.23
2018-01-16T06:19:07.597Z,98830.57
2018-01-16T06:21:35.160Z,98841.93
2018-01-16T06:24:02.673Z,98845.40
2018-01-16T06:26:30.292Z,98827.17
2018-01-16T06:28:57.802Z,98831.22
2018-01-16T06:31:25.313Z,98831.57
2018-01-16T06:33:52.869Z,98824.91
2018-01-16T06:36:20.411Z,98815.69
2018-01-16T06:38:47.923Z,98823.28
2018-01-16T06:41:15.427Z,98818.29
2018-01-16T06:43:43.006Z,98819.70
2018-01-16T06:46:10.511Z,98822.42
2018-01-16T06:48:38.134Z,98820.63
2018-01-16T06:51:05.688Z,98815.89
2018-01-16T06:53:33.230Z,98822.81
2018-01-16T06:56:00.741Z,98811.28
2018-01-16T06:58:28.364Z,98816.23
2018-01-16T07:00:55.957Z,98816.23
2018-01-16T07:03:23.487Z,98809.14
2018-01-16T07:05:50.997Z,98811.41
2018-01-16T07:08:18.515Z,98814.80
2018-01-16T07:10:46.026Z,98809.52
2018-01-16T07:13:13.532Z,98816.12
2018-01-16T07:15:41.053Z,98825.40
2018-01-16T07:18:08.595Z,98819.75
2018-01-16T07:20:36.200Z,98821.81
2018-01-16T07:23:03.700Z,98822.11
2018-01-16T07:25:31.325Z,98820.20
2018-01-16T07:27:58.878Z,98823.50
2018-01-16T07:30:26.429Z,98815.44
2018-01-16T07:32:53.940Z,98818.91
2018-01-16T07:35:21.462Z,98817.34
2018-01-16T07:37:48.973Z,98817.59
2018-01-16T07:40:16.563Z,98820.52
2018-01-16T07:42:44.079Z,98820.56
2018-01-16T07:45:11.697Z,98819.33
2018-01-16T07:47:39.210Z,98813.56
2018-01-16T07:50:06.721Z,98806.26
2018-01-16T07:52:34.231Z,98797.58
2018-01-16T07:55:01.823Z,98793.26
2018-01-16T07:57:29.329Z,98794.78
2018-01-16T07:59:56.945Z,98794.87
2018-01-16T08:02:24.446Z,98799.09
2018-01-16T08:04:51.948Z,98792.48
2018-01-16T08:07:19.498Z,98785.91
2018-01-16T08:09:47.076Z,98781.50
2018-01-16T08:12:14.589Z,98784.46
2018-01-16T08:14:42.210Z,98779.68
2018-01-16T08:17:09.725Z,98784.95
2018-01-16T08:19:37.274Z,98782.59
2018-01-16T08:22:04.881Z,98768.53
2018-01-16T08:24:32.387Z,98769.77
2018-01-16T08:26:59.911Z,98765.92
2018-01-16T08:29:27.431Z,98764.63
2018-01-16T08:31:54.963Z,98768.13
2018-01-16T08:34:22.456Z,98776.48
2018-01-16T08:36:49.960Z,98769.17
2018-01-16T08:39:17.466Z,98779.52
2018-01-16T08:41:44.965Z,98776.39
2018-01-16T08:44:12.472Z,98774.28
2018-01-16T08:46:39.964Z,98774.84
2018-01-16T08:49:07.469Z,98767.00
2018-01-16T08:51:34.972Z,98769.30
2018-01-16T08:54:02.485Z,98765.45
2018-01-16T08:56:29.986Z,98765.39
2018-01-16T08:58:57.532Z,98767.91
2018-01-16T09:01:25.061Z,98767.00
2018-01-16T09:03:52.565Z,98761.59
2018-01-16T09:06:20.069Z,98748.53
2018-01-16T09:08:47.576Z,98753.34
2018-01-16T09:11:15.160Z,98755.36
2018-01-16T09:13:42.660Z,98748.80
2018-01-16T09:16:10.159Z,98752.44
2018-01-16T09:18:37.675Z,98746.27
2018-01-16T09:21:05.183Z,98743.38
2018-01-16T09:23:32.701Z,98732.41
2018-01-16T09:26:00.332Z,98736.52
2018-01-16T09:28:27.837Z,98735.90
2018-01-16T09:30:55.346Z,98731.49
2018-01-16T09:33:22.862Z,98724.31
2018-01-16T09:35:50.393Z,98735.91
2018-01-16T09:38:17.904Z,98728.13
2018-01-16T09:40:45.406Z,98730.81
2018-01-16T09:43:12.909Z,98722.95
2018-01-16T09:45:40.420Z,98725.96
2018-01-16T09:48:07.958Z,98720.31
2018-01-16T09:50:35.460Z,98711.02
2018-01-16T09:53:02.957Z,98704.87
2018-01-16T09:55:30.531Z,98704.27
2018-01-16T09:57:58.093Z,98705.16
2018-01-16T10:00:25.596Z,98714.14
2018-01-16T10:02:53.200Z,98702.89
2018-01-16T10:05:20.704Z,98696.69
2018-01-16T10:07:48.218Z,98694.88
2018-01-16T10:10:15.780Z,98702.87
2018-01-16T10:12:43.282Z,98698.01
2018-01-16T10:15:10.814Z,98707.00
2018-01-16T10:17:38.340Z,98701.52
2018-01-16T10:20:05.851Z,98702.09
2018-01-16T10:22:33.345Z,98704.14
2018-01-16T10:25:00.861Z,98705.05
2018-01-16T10:27:28.362Z,98709.41
2018-01-16T10:29:55.885Z,98715.51
2018-01-16T10:32:23.396Z,98708.64
2018-01-16T10:34:50.905Z,98699.88
2018-01-16T10:37:18.542Z,98690.98
2018-01-16T10:39:46.054Z,98691.99
2018-01-16T10:42:13.574Z,98696.73
2018-01-16T10:44:41.089Z,98688.63
2018-01-16T10:47:08.608Z,98684.73
2018-01-16T10:49:36.104Z,98696.95
2018-01-16T10:52:03.620Z,98694.45
2018-01-16T10:54:31.676Z,98699.85
2018-01-16T10:56:59.189Z,98695.80
2018-01-16T10:59:26.697Z,98693.88
2018-01-16T11:01:54.235Z,98691.63
2018-01-16T11:04:21.728Z,98685.18
2018-01-16T11:06:49.224Z,98674.61
2018-01-16T11:09:16.744Z,98684.47
2018-01-16T11:11:44.270Z,98677.81
2018-01-16T11:14:11.775Z,98674.34
2018-01-16T11:16:39.282Z,98667.16
2018-01-16T11:19:06.780Z,98662.05
2018-01-16T11:21:34.283Z,98661.23
2018-01-16T11:24:01.883Z,98655.06
2018-01-16T11:26:29.383Z,98644.64
2018-01-16T11:28:56.985Z,98642.55
2018-01-16T11:31:24.481Z,98641.91
2018-01-16T11:33:51.988Z,98640.24
2018-01-16T11:36:19.569Z,98634.19
2018-01-16T11:38:47.068Z,98635.84
2018-01-16T11:41:14.559Z,98627.64
2018-01-16T11:43:42.135Z,98624.47
2018-01-16T11:46:09.642Z,98622.66
2018-01-16T11:48:37.154Z,98620.71
2018-01-16T11:51:04.718Z,98623.00
2018-01-16T11:53:32.212Z,98609.36
2018-01-16T11:55:59.849Z,98616.25
2018-01-16T11:58:28.532Z,98613.02
2018-01-16T12:00:56.037Z,98613.73
2018-01-16T12:03:23.548Z,98604.35
2018-01-16T12:05:51.072Z,98606.66
2018-01-16T12:08:18.581Z,98593.92
2018-01-16T12:10:46.084Z,98593.31
2018-01-16T12:13:13.622Z,98579.53
2018-01-16T12:15:41.130Z,98577.74
2018-01-16T12:18:08.665Z,98572.80
2018-01-16T12:20:36.201Z,98575.64
2018-01-16T12:23:03.695Z,98573.28
2018-01-16T12:25:31.268Z,98571.70
2018-01-16T12:27:58.834Z,98559.86
2018-01-16T12:30:26.408Z,98561.58
2018-01-16T12:32:53.912Z,98568.48
2018-01-16T12:35:21.409Z,98557.69
2018-01-16T12:37:48.924Z,98567.84
2018-01-16T12:40:16.445Z,98567.44
2018-01-16T12:42:43.952Z,98568.95
2018-01-16T12:45:11.560Z,98564.55
2018-01-16T12:47:39.104Z,98566.83
2018-01-16T12:50:06.604Z,98558.97
2018-01-16T12:52:34.104Z,98553.63
2018-01-16T12:55:01.618Z,98556.75
2018-01-16T12:57:29.163Z,98560.52
2018-01-16T12:59:56.661Z,98560.25
2018-01-16T13:02:24.169Z,98561.95
2018-01-16T13:04:51.736Z,98552.14
2018-01-16T13:07:19.246Z,98545.33
2018-01-16T13:09:46.853Z,98546.81
2018-01-16T13:12:15.231Z,98535.67
2018-01-16T13:14:42.746Z,98539.71
2018-01-16T13:17:10.247Z,98537.02
2018-01-16T13:19:37.740Z,98543.27
2018-01-16T13:22:05.371Z,98534.80
2018-01-16T13:24:32.929Z,98526.44
2018-01-16T13:27:00.439Z,98528.59
2018-01-16T13:29:28.059Z,98520.22
2018-01-16T13:31:55.564Z,98535.02
2018-01-16T13:34:23.077Z,98526.20
2018-01-16T13:36:50.616Z,98528.13
2018-01-16T13:39:18.113Z,98517.38
2018-01-16T13:41:45.735Z,98518.84
2018-01-16T13:44:13.295Z,98520.83
2018-01-16T13:46:40.793Z,98516.27
2018-01-16T13:49:08.294Z,98518.59
2018-01-16T13:51:35.871Z,98517.52
2018-01-16T13:54:03.433Z,98515.27
2018-01-16T13:56:31.024Z,98519.95
2018-01-16T13:58:58.533Z,98521.77
2018-01-16T14:01:26.049Z,98525.34
2018-01-16T14:03:53.653Z,98528.79
2018-01-16T14:06:21.159Z,98525.47
2018-01-16T14:08:48.667Z,98521.76
2018-01-16T14:11:16.162Z,98524.57
2018-01-16T14:13:43.673Z,98522.14
2018-01-16T14:16:11.276Z,98521.86
2018-01-16T14:18:38.793Z,98519.45
2018-01-16T14:21:06.324Z,98513.88
2018-01-16T14:23:33.841Z,98511.59
2018-01-16T14:26:01.408Z,98513.69
2018-01-16T14:28:28.916Z,98504.27
2018-01-16T14:30:56.416Z,98501.81
2018-01-16T14:33:23.975Z,98507.64
2018-01-16T14:35:51.476Z,98514.46
2018-01-16T14:38:18.993Z,98514.63
2018-01-16T14:40:46.574Z,98505.80
2018-01-16T14:43:14.093Z,98506.23
2018-01-16T14:45:41.618Z,98503.57
2018-01-16T14:48:09.134Z,98509.31
2018-01-16T14:50:36.627Z,98507.88
2018-01-16T14:53:04.158Z,98516.81
2018-01-16T14:55:31.657Z,98513.36
2018-01-16T14:57:59.151Z,98516.48
2018-01-16T15:00:26.656Z,98514.89
2018-01-16T15:02:54.185Z,98522.70
2018-01-16T15:05:21.694Z,98525.91
2018-01-16T15:07:49.200Z,98518.05
2018-01-16T15:10:16.708Z,98520.76
2018-01-16T15:12:44.221Z,98523.80
2018-01-16T15:15:11.725Z,98522.02
2018-01-16T15:17:39.228Z,98515.48
2018-01-16T15:20:06.772Z,98505.22
2018-01-16T15:22:34.284Z,98513.98
2018-01-16T15:25:01.818Z,98516.34
2018-01-16T15:27:29.315Z,98518.63
2018-01-16T15:29:56.816Z,98526.75
2018-01-16T15:32:24.327Z,98532.54
2018-01-16T15:34:51.836Z,98531.42
2018-01-16T15:37:19.353Z,98531.47
2018-01-16T15:39:46.966Z,98533.27
2018-01-16T15:42:14.537Z,98533.23
2018-01-16T15:44:42.100Z,98547.27
2018-01-16T15:47:09.600Z,98549.43
2018-01-16T15:49:37.099Z,98545.94
2018-01-16T15:52:04.677Z,98536.36
2018-01-16T15:54:32.212Z,98540.20
2018-01-16T15:56:59.710Z,98544.18
2018-01-16T15:59:27.218Z,98547.36
2018-01-16T16:01:56.050Z,98554.38
2018-01-16T16:04:24.596Z,98553.95
2018-01-16T16:06:52.137Z,98550.06
2018-01-16T16:09:19.656Z,98555.92
2018-01-16T16:11:47.163Z,98558.31
2018-01-16T16:14:14.674Z,98564.09
2018-01-16T16:16:42.180Z,98560.25
2018-01-16T16:19:09.687Z,98564.03
2018-01-16T16:21:37.236Z,98575.95
2018-01-16T16:24:04.740Z,98575.81
2018-01-16T16:26:32.372Z,98574.69
2018-01-16T16:28:59.915Z,98579.26
2018-01-16T16:31:27.458Z,98582.13
2018-01-16T16:33:55.036Z,98579.57
2018-01-16T16:36:22.554Z,98584.23
2018-01-16T16:38:50.052Z,98587.17
2018-01-16T16:41:17.644Z,98593.39
2018-01-16T16:43:45.145Z,98587.69
2018-01-16T16:46:12.731Z,98592.27
2018-01-16T16:48:40.291Z,98603.20
2018-01-16T16:51:07.852Z,98611.84
2018-01-16T16:53:35.415Z,98605.88
2018-01-16T16:56:02.914Z,98613.34
2018-01-16T16:58:30.421Z,98607.75
2018-01-16T17:00:57.993Z,98613.83
2018-01-16T17:03:25.494Z,98613.67
2018-01-16T17:05:52.998Z,98617.98
2018-01-16T17:08:20.505Z,98623.05
2018-01-16T17:10:48.012Z,98631.30
2018-01-16T17:13:15.517Z,98631.44
2018-01-16T17:15:43.048Z,98636.40
2018-01-16T17:18:10.580Z,98630.72
2018-01-16T17:20:38.093Z,98646.33
2018-01-16T17:23:05.600Z,98645.52
2018-01-16T17:25:33.107Z,98646.03
2018-01-16T17:28:00.612Z,98641.63
2018-01-16T17:30:28.115Z,98646.22
2018-01-16T17:32:55.624Z,98643.75
2018-01-16T17:35:23.223Z,98643.53
2018-01-16T17:37:50.742Z,98651.08
2018-01-16T17:40:18.287Z,98657.05
2018-01-16T17:42:45.796Z,98664.58
2018-01-16T17:45:13.304Z,98662.02
2018-01-16T17:47:40.809Z,98662.50
2018-01-16T17:50:08.304Z,98655.98
2018-01-16T17:52:35.845Z,98670.54
2018-01-16T17:55:03.357Z,98669.52
2018-01-16T17:57:30.868Z,98668.89
2018-01-16T17:59:58.371Z,98670.50
2018-01-16T18:02:25.867Z,98677.84
2018-01-16T18:04:53.366Z,98681.86
2018-01-16T18:07:20.867Z,98690.64
2018-01-16T18:09:48.453Z,98684.63
2018-01-16T18:12:15.977Z,98694.50
2018-01-16T18:14:43.480Z,98699.77
2018-01-16T18:17:10.995Z,98695.72
2018-01-16T18:19:38.510Z,98697.42
2018-01-16T18:22:06.021Z,98686.65
2018-01-16T18:24:33.566Z,98694.81
2018-01-16T18:27:01.076Z,98692.38
2018-01-16T18:29:28.580Z,98695.28
2018-01-16T18:31:56.179Z,98695.45
2018-01-16T18:34:23.692Z,98691.58
2018-01-16T18:36:51.238Z,98698.77
2018-01-16T18:39:19.188Z,98700.82
2018-01-16T18:41:46.873Z,98702.27
2018-01-16T18:44:14.506Z,98697.87
2018-01-16T18:46:42.022Z,98695.27
2018-01-16T20:05:06.490Z,98719.14
2018-01-16T20:07:33.985Z,98726.58
2018-01-16T20:10:01.587Z,98722.91
2018-01-16T20:12:29.112Z,98729.56
2018-01-16T20:14:56.628Z,98733.75
2018-01-16T20:17:24.137Z,98745.55
2018-01-16T20:19:51.782Z,98748.57
2018-01-16T20:22:19.365Z,98744.52
2018-01-16T20:24:46.895Z,98745.67
2018-01-16T20:27:14.413Z,98746.52
2018-01-16T20:29:41.921Z,98755.36
2018-01-16T20:32:09.544Z,98752.25
2018-01-16T20:34:37.077Z,98758.31
2018-01-16T20:37:04.582Z,98755.53
2018-01-16T20:39:32.126Z,98755.97
2018-01-16T20:41:59.652Z,98753.31
2018-01-16T20:44:27.160Z,98757.63
2018-01-16T20:46:54.786Z,98764.23
2018-01-16T20:49:22.310Z,98768.84
2018-01-16T20:51:49.807Z,98764.98
2018-01-16T20:54:17.381Z,98767.31
2018-01-16T20:56:44.893Z,98768.84
2018-01-16T20:59:12.562Z,98764.19
2018-01-16T21:01:40.146Z,98769.23
2018-01-16T21:04:07.717Z,98766.47
2018-01-16T21:06:35.248Z,98770.09
2018-01-16T21:09:03.044Z,98771.11
2018-01-16T21:11:30.562Z,98776.45
2018-01-16T21:13:58.093Z,98774.41
2018-01-16T21:16:27.214Z,98779.02
2018-01-16T21:18:54.755Z,98781.23
2018-01-16T21:21:22.264Z,98784.75
2018-01-16T21:23:49.812Z,98778.03
2018-01-16T21:26:17.411Z,98784.93
2018-01-16T21:28:45.041Z,98793.95
2018-01-16T21:31:12.593Z,98787.48
2018-01-16T21:33:40.154Z,98791.77
2018-01-16T21:36:07.662Z,98790.23
2018-01-16T21:38:35.169Z,98784.20
2018-01-16T21:41:02.751Z,98781.44
2018-01-16T21:43:30.272Z,98779.05
2018-01-16T21:45:57.788Z,98776.23
2018-01-16T21:48:25.418Z,98780.50
2018-01-16T21:50:52.933Z,98787.30
2018-01-16T21:53:20.538Z,98784.02
2018-01-16T21:55:48.099Z,98789.55
2018-01-16T21:58:15.608Z,98792.47
2018-01-16T22:00:43.227Z,98787.80
2018-01-16T22:03:10.750Z,98785.62
2018-01-16T22:05:38.258Z,98786.78
2018-01-16T22:08:05.765Z,98784.77
2018-01-16T22:10:33.289Z,98790.19
2018-01-16T22:13:00.813Z,98792.95
2018-01-16T22:15:28.381Z,98788.78
2018-01-16T22:17:55.888Z,98776.88
2018-01-16T22:20:23.398Z,98778.32
2018-01-16T23:44:47.913Z,98792.96
2018-01-16T23:47:15.465Z,98800.07
2018-01-16T23:49:42.987Z,98799.22
2018-01-16T23:52:10.491Z,98799.56
2018-01-16T23:54:38.037Z,98792.92
2018-01-16T23:57:05.571Z,98793.07
2018-01-16T23:59:33.084Z,98801.31
